Terminal Aerodrome Forecast
Issued by NWS Sterling, VA

Home | Current Version | Previous Version | Text Only | Print | Product List | Glossary On
Versions: 1 2 3 4 5 6 7 8 9 10 11 12 13 14 15 16 17 18 19 20 21 22 23 24
000
FTUS41 KLWX 291740 AAD
TAFBWI
TAF AMD
KBWI 291740Z 2918/3024 14006G15KT P6SM VCSH BKN035
      TEMPO 2918/2920 2SM SHRA BR BKN015
     FM300000 18008KT P6SM BKN040
     FM301600 19010KT 6SM -SHRA VCTS BKN050CB
     FM302000 25006KT 6SM -SHRA VCTS BKN050CB
     FM302200 29007KT P6SM SCT070=

USA.gov is the U.S. government's official web portal to all federal, state and local government web resources and services.